sensor_id;sensor_type;location;lat;lon;timestamp;P1;durP1;ratioP1;P2;durP2;ratioP2
5014;SDS011;2526;51.060;4.228;2023-08-17T00:01:10;9.63;;;2.55;;
5014;SDS011;2526;51.060;4.228;2023-08-17T00:03:35;1.92;;;1.58;;
5014;SDS011;2526;51.060;4.228;2023-08-17T00:06:00;3.15;;;2.03;;
5014;SDS011;2526;51.060;4.228;2023-08-17T00:08:26;3.10;;;1.98;;
5014;SDS011;2526;51.060;4.228;2023-08-17T00:10:51;3.83;;;1.70;;
5014;SDS011;2526;51.060;4.228;2023-08-17T00:13:17;4.05;;;1.42;;
5014;SDS011;2526;51.060;4.228;2023-08-17T00:15:42;2.90;;;2.20;;
5014;SDS011;2526;51.060;4.228;2023-08-17T00:18:10;6.90;;;1.58;;
5014;SDS011;2526;51.060;4.228;2023-08-17T00:20:35;2.80;;;1.45;;
5014;SDS011;2526;51.060;4.228;2023-08-17T00:23:01;6.15;;;2.03;;
5014;SDS011;2526;51.060;4.228;2023-08-17T00:25:26;4.85;;;1.75;;
5014;SDS011;2526;51.060;4.228;2023-08-17T00:27:52;2.33;;;1.77;;
5014;SDS011;2526;51.060;4.228;2023-08-17T00:30:17;1.92;;;1.42;;
5014;SDS011;2526;51.060;4.228;2023-08-17T00:32:43;3.42;;;1.90;;
5014;SDS011;2526;51.060;4.228;2023-08-17T00:35:08;1.20;;;1.10;;
5014;SDS011;2526;51.060;4.228;2023-08-17T00:37:34;1.90;;;1.27;;
5014;SDS011;2526;51.060;4.228;2023-08-17T00:39:59;1.60;;;1.40;;
5014;SDS011;2526;51.060;4.228;2023-08-17T00:42:24;5.22;;;2.10;;
5014;SDS011;2526;51.060;4.228;2023-08-17T00:44:50;3.05;;;1.63;;
5014;SDS011;2526;51.060;4.228;2023-08-17T00:47:15;11.75;;;2.42;;
5014;SDS011;2526;51.060;4.228;2023-08-17T00:49:41;1.65;;;1.55;;
5014;SDS011;2526;51.060;4.228;2023-08-17T00:52:06;3.13;;;1.77;;
5014;SDS011;2526;51.060;4.228;2023-08-17T00:54:32;9.30;;;2.10;;
5014;SDS011;2526;51.060;4.228;2023-08-17T00:56:57;3.28;;;1.67;;
5014;SDS011;2526;51.060;4.228;2023-08-17T00:59:24;3.03;;;2.13;;
5014;SDS011;2526;51.060;4.228;2023-08-17T01:01:49;2.75;;;1.90;;
5014;SDS011;2526;51.060;4.228;2023-08-17T01:04:15;3.45;;;1.77;;
5014;SDS011;2526;51.060;4.228;2023-08-17T01:06:41;2.17;;;1.63;;
5014;SDS011;2526;51.060;4.228;2023-08-17T01:09:06;3.03;;;1.83;;
5014;SDS011;2526;51.060;4.228;2023-08-17T01:11:34;3.88;;;2.35;;
5014;SDS011;2526;51.060;4.228;2023-08-17T01:14:05;1.58;;;1.30;;
5014;SDS011;2526;51.060;4.228;2023-08-17T01:16:35;2.60;;;1.83;;
5014;SDS011;2526;51.060;4.228;2023-08-17T01:19:02;3.78;;;2.25;;
5014;SDS011;2526;51.060;4.228;2023-08-17T01:21:34;3.72;;;1.92;;
5014;SDS011;2526;51.060;4.228;2023-08-17T01:24:02;2.33;;;1.92;;
5014;SDS011;2526;51.060;4.228;2023-08-17T01:26:28;4.43;;;2.05;;
5014;SDS011;2526;51.060;4.228;2023-08-17T01:28:53;1.48;;;1.38;;
5014;SDS011;2526;51.060;4.228;2023-08-17T01:31:21;2.35;;;1.65;;
5014;SDS011;2526;51.060;4.228;2023-08-17T01:33:50;4.35;;;2.00;;
5014;SDS011;2526;51.060;4.228;2023-08-17T01:36:22;7.88;;;2.45;;
5014;SDS011;2526;51.060;4.228;2023-08-17T01:38:51;4.95;;;2.42;;
5014;SDS011;2526;51.060;4.228;2023-08-17T01:41:16;8.85;;;1.98;;
5014;SDS011;2526;51.060;4.228;2023-08-17T01:43:42;2.22;;;1.75;;
5014;SDS011;2526;51.060;4.228;2023-08-17T01:46:13;2.75;;;1.35;;
5014;SDS011;2526;51.060;4.228;2023-08-17T01:48:39;2.05;;;1.55;;
5014;SDS011;2526;51.060;4.228;2023-08-17T01:51:04;2.17;;;1.02;;
5014;SDS011;2526;51.060;4.228;2023-08-17T01:53:30;4.07;;;2.40;;
5014;SDS011;2526;51.060;4.228;2023-08-17T01:55:55;1.42;;;1.13;;
5014;SDS011;2526;51.060;4.228;2023-08-17T01:58:20;1.40;;;1.00;;
5014;SDS011;2526;51.060;4.228;2023-08-17T02:00:46;1.85;;;1.42;;
5014;SDS011;2526;51.060;4.228;2023-08-17T02:03:11;2.67;;;2.15;;
5014;SDS011;2526;51.060;4.228;2023-08-17T02:05:37;8.48;;;2.05;;
5014;SDS011;2526;51.060;4.228;2023-08-17T02:08:02;1.52;;;1.42;;
5014;SDS011;2526;51.060;4.228;2023-08-17T02:10:28;1.50;;;1.23;;
5014;SDS011;2526;51.060;4.228;2023-08-17T02:12:53;4.97;;;1.50;;
5014;SDS011;2526;51.060;4.228;2023-08-17T02:15:19;3.88;;;1.35;;
5014;SDS011;2526;51.060;4.228;2023-08-17T02:17:44;2.60;;;1.30;;
5014;SDS011;2526;51.060;4.228;2023-08-17T02:20:10;1.95;;;1.02;;
5014;SDS011;2526;51.060;4.228;2023-08-17T02:22:35;10.00;;;1.80;;
5014;SDS011;2526;51.060;4.228;2023-08-17T02:25:01;2.83;;;1.45;;
5014;SDS011;2526;51.060;4.228;2023-08-17T02:27:26;5.45;;;1.80;;
5014;SDS011;2526;51.060;4.228;2023-08-17T02:29:51;2.88;;;1.33;;
5014;SDS011;2526;51.060;4.228;2023-08-17T02:32:17;1.58;;;1.48;;
5014;SDS011;2526;51.060;4.228;2023-08-17T02:34:42;2.90;;;1.20;;
5014;SDS011;2526;51.060;4.228;2023-08-17T02:37:08;2.08;;;1.35;;
5014;SDS011;2526;51.060;4.228;2023-08-17T02:39:33;2.65;;;1.40;;
5014;SDS011;2526;51.060;4.228;2023-08-17T02:41:59;4.25;;;2.25;;
5014;SDS011;2526;51.060;4.228;2023-08-17T02:44:24;4.68;;;1.02;;
5014;SDS011;2526;51.060;4.228;2023-08-17T02:46:50;4.00;;;1.00;;
5014;SDS011;2526;51.060;4.228;2023-08-17T02:49:15;4.55;;;1.63;;
5014;SDS011;2526;51.060;4.228;2023-08-17T02:51:41;1.40;;;1.30;;
5014;SDS011;2526;51.060;4.228;2023-08-17T02:54:06;3.50;;;1.85;;
5014;SDS011;2526;51.060;4.228;2023-08-17T02:56:32;6.10;;;1.83;;
5014;SDS011;2526;51.060;4.228;2023-08-17T02:58:57;4.65;;;1.80;;
5014;SDS011;2526;51.060;4.228;2023-08-17T03:01:23;2.55;;;1.27;;
5014;SDS011;2526;51.060;4.228;2023-08-17T03:03:48;1.55;;;1.08;;
5014;SDS011;2526;51.060;4.228;2023-08-17T03:06:14;9.27;;;1.85;;
5014;SDS011;2526;51.060;4.228;2023-08-17T03:08:39;1.90;;;1.23;;
5014;SDS011;2526;51.060;4.228;2023-08-17T03:11:05;1.38;;;0.98;;
5014;SDS011;2526;51.060;4.228;2023-08-17T03:13:32;2.25;;;1.48;;
5014;SDS011;2526;51.060;4.228;2023-08-17T03:15:58;2.47;;;1.63;;
5014;SDS011;2526;51.060;4.228;2023-08-17T03:18:23;1.23;;;1.13;;
5014;SDS011;2526;51.060;4.228;2023-08-17T03:20:49;2.58;;;1.60;;
5014;SDS011;2526;51.060;4.228;2023-08-17T03:23:14;3.30;;;1.40;;
5014;SDS011;2526;51.060;4.228;2023-08-17T03:25:40;1.92;;;1.70;;
5014;SDS011;2526;51.060;4.228;2023-08-17T03:28:05;1.15;;;1.00;;
5014;SDS011;2526;51.060;4.228;2023-08-17T03:30:30;2.10;;;1.50;;
5014;SDS011;2526;51.060;4.228;2023-08-17T03:32:56;2.50;;;1.55;;
5014;SDS011;2526;51.060;4.228;2023-08-17T03:35:22;2.88;;;1.42;;
5014;SDS011;2526;51.060;4.228;2023-08-17T03:37:47;2.55;;;1.45;;
5014;SDS011;2526;51.060;4.228;2023-08-17T03:40:12;3.50;;;1.50;;
5014;SDS011;2526;51.060;4.228;2023-08-17T03:42:38;1.75;;;1.38;;
5014;SDS011;2526;51.060;4.228;2023-08-17T03:45:04;1.52;;;1.25;;
5014;SDS011;2526;51.060;4.228;2023-08-17T03:47:29;4.55;;;1.77;;
5014;SDS011;2526;51.060;4.228;2023-08-17T03:49:55;3.40;;;1.60;;
5014;SDS011;2526;51.060;4.228;2023-08-17T03:52:20;2.25;;;1.58;;
5014;SDS011;2526;51.060;4.228;2023-08-17T03:54:46;1.83;;;1.30;;
5014;SDS011;2526;51.060;4.228;2023-08-17T03:57:12;2.50;;;1.33;;
5014;SDS011;2526;51.060;4.228;2023-08-17T03:59:37;3.05;;;1.85;;
5014;SDS011;2526;51.060;4.228;2023-08-17T04:02:03;3.83;;;2.53;;
5014;SDS011;2526;51.060;4.228;2023-08-17T04:04:28;2.67;;;1.75;;
5014;SDS011;2526;51.060;4.228;2023-08-17T04:06:53;4.57;;;1.52;;
5014;SDS011;2526;51.060;4.228;2023-08-17T04:09:19;2.05;;;1.27;;
5014;SDS011;2526;51.060;4.228;2023-08-17T04:11:44;3.13;;;1.95;;
5014;SDS011;2526;51.060;4.228;2023-08-17T04:14:10;2.38;;;1.58;;
5014;SDS011;2526;51.060;4.228;2023-08-17T04:16:35;3.38;;;1.50;;
5014;SDS011;2526;51.060;4.228;2023-08-17T04:19:01;3.95;;;1.65;;
5014;SDS011;2526;51.060;4.228;2023-08-17T04:21:26;5.30;;;1.73;;
5014;SDS011;2526;51.060;4.228;2023-08-17T04:23:52;1.92;;;1.45;;
5014;SDS011;2526;51.060;4.228;2023-08-17T04:26:17;2.15;;;1.35;;
5014;SDS011;2526;51.060;4.228;2023-08-17T04:28:43;2.42;;;1.45;;
5014;SDS011;2526;51.060;4.228;2023-08-17T04:31:08;2.00;;;1.63;;
5014;SDS011;2526;51.060;4.228;2023-08-17T04:33:33;5.78;;;1.92;;
5014;SDS011;2526;51.060;4.228;2023-08-17T04:35:59;1.63;;;1.40;;
5014;SDS011;2526;51.060;4.228;2023-08-17T04:38:26;2.45;;;1.40;;
5014;SDS011;2526;51.060;4.228;2023-08-17T04:40:51;2.92;;;1.45;;
5014;SDS011;2526;51.060;4.228;2023-08-17T04:43:17;3.47;;;1.90;;
5014;SDS011;2526;51.060;4.228;2023-08-17T04:45:42;6.03;;;2.10;;
5014;SDS011;2526;51.060;4.228;2023-08-17T04:48:09;5.13;;;1.95;;
5014;SDS011;2526;51.060;4.228;2023-08-17T04:50:35;6.97;;;2.03;;
5014;SDS011;2526;51.060;4.228;2023-08-17T04:53:00;3.67;;;1.60;;
5014;SDS011;2526;51.060;4.228;2023-08-17T04:55:25;8.10;;;1.52;;
5014;SDS011;2526;51.060;4.228;2023-08-17T04:57:51;2.33;;;1.38;;
5014;SDS011;2526;51.060;4.228;2023-08-17T05:00:16;2.67;;;1.52;;
5014;SDS011;2526;51.060;4.228;2023-08-17T05:02:42;2.22;;;1.35;;
5014;SDS011;2526;51.060;4.228;2023-08-17T05:05:08;2.53;;;1.73;;
5014;SDS011;2526;51.060;4.228;2023-08-17T05:07:34;5.63;;;1.88;;
5014;SDS011;2526;51.060;4.228;2023-08-17T05:10:00;3.08;;;1.67;;
5014;SDS011;2526;51.060;4.228;2023-08-17T05:12:26;1.58;;;1.27;;
5014;SDS011;2526;51.060;4.228;2023-08-17T05:14:51;1.63;;;1.25;;
5014;SDS011;2526;51.060;4.228;2023-08-17T05:17:17;2.80;;;1.45;;
5014;SDS011;2526;51.060;4.228;2023-08-17T05:19:42;3.75;;;1.63;;
5014;SDS011;2526;51.060;4.228;2023-08-17T05:22:10;1.15;;;1.05;;
5014;SDS011;2526;51.060;4.228;2023-08-17T05:24:35;4.78;;;1.60;;
5014;SDS011;2526;51.060;4.228;2023-08-17T05:27:01;3.00;;;1.92;;
5014;SDS011;2526;51.060;4.228;2023-08-17T05:29:26;5.82;;;2.00;;
5014;SDS011;2526;51.060;4.228;2023-08-17T05:31:52;2.47;;;1.55;;
5014;SDS011;2526;51.060;4.228;2023-08-17T05:34:17;1.60;;;0.80;;
5014;SDS011;2526;51.060;4.228;2023-08-17T05:36:43;1.42;;;1.05;;
5014;SDS011;2526;51.060;4.228;2023-08-17T05:39:08;2.80;;;1.55;;
5014;SDS011;2526;51.060;4.228;2023-08-17T05:41:34;1.98;;;1.25;;
5014;SDS011;2526;51.060;4.228;2023-08-17T05:44:00;7.07;;;1.58;;
5014;SDS011;2526;51.060;4.228;2023-08-17T05:46:25;1.38;;;1.00;;
5014;SDS011;2526;51.060;4.228;2023-08-17T05:48:50;4.75;;;1.40;;
5014;SDS011;2526;51.060;4.228;2023-08-17T05:51:16;2.22;;;1.60;;
5014;SDS011;2526;51.060;4.228;2023-08-17T05:53:41;3.15;;;1.92;;
5014;SDS011;2526;51.060;4.228;2023-08-17T05:56:07;7.10;;;2.05;;
5014;SDS011;2526;51.060;4.228;2023-08-17T05:58:32;2.35;;;1.02;;
5014;SDS011;2526;51.060;4.228;2023-08-17T06:01:07;1.52;;;1.20;;
5014;SDS011;2526;51.060;4.228;2023-08-17T06:03:33;6.20;;;1.83;;
5014;SDS011;2526;51.060;4.228;2023-08-17T06:05:59;2.05;;;1.15;;
5014;SDS011;2526;51.060;4.228;2023-08-17T06:08:24;7.40;;;1.38;;
5014;SDS011;2526;51.060;4.228;2023-08-17T06:10:50;3.28;;;0.90;;
5014;SDS011;2526;51.060;4.228;2023-08-17T06:13:15;2.63;;;1.58;;
5014;SDS011;2526;51.060;4.228;2023-08-17T06:15:41;5.28;;;1.95;;
5014;SDS011;2526;51.060;4.228;2023-08-17T06:18:06;2.10;;;1.42;;
5014;SDS011;2526;51.060;4.228;2023-08-17T06:20:32;1.70;;;1.20;;
5014;SDS011;2526;51.060;4.228;2023-08-17T06:22:57;1.45;;;1.10;;
5014;SDS011;2526;51.060;4.228;2023-08-17T06:25:22;2.50;;;1.55;;
5014;SDS011;2526;51.060;4.228;2023-08-17T06:27:49;8.60;;;1.63;;
5014;SDS011;2526;51.060;4.228;2023-08-17T06:30:14;2.10;;;1.35;;
5014;SDS011;2526;51.060;4.228;2023-08-17T06:32:40;2.13;;;1.38;;
5014;SDS011;2526;51.060;4.228;2023-08-17T06:35:05;1.42;;;1.13;;
5014;SDS011;2526;51.060;4.228;2023-08-17T06:37:31;3.17;;;1.92;;
5014;SDS011;2526;51.060;4.228;2023-08-17T06:39:56;8.40;;;2.60;;
5014;SDS011;2526;51.060;4.228;2023-08-17T06:42:22;5.97;;;2.28;;
5014;SDS011;2526;51.060;4.228;2023-08-17T06:44:47;3.22;;;2.00;;
5014;SDS011;2526;51.060;4.228;2023-08-17T06:47:13;2.17;;;1.42;;
5014;SDS011;2526;51.060;4.228;2023-08-17T06:49:40;7.20;;;1.40;;
5014;SDS011;2526;51.060;4.228;2023-08-17T06:52:06;3.88;;;1.20;;
5014;SDS011;2526;51.060;4.228;2023-08-17T06:54:31;1.67;;;1.02;;
5014;SDS011;2526;51.060;4.228;2023-08-17T06:56:57;2.03;;;1.58;;
5014;SDS011;2526;51.060;4.228;2023-08-17T06:59:24;6.40;;;1.67;;
5014;SDS011;2526;51.060;4.228;2023-08-17T07:01:49;2.60;;;1.60;;
5014;SDS011;2526;51.060;4.228;2023-08-17T07:04:15;1.92;;;1.23;;
5014;SDS011;2526;51.060;4.228;2023-08-17T07:06:40;2.38;;;1.23;;
5014;SDS011;2526;51.060;4.228;2023-08-17T07:09:06;8.52;;;2.00;;
5014;SDS011;2526;51.060;4.228;2023-08-17T07:11:32;7.30;;;1.33;;
5014;SDS011;2526;51.060;4.228;2023-08-17T07:13:57;6.40;;;2.42;;
5014;SDS011;2526;51.060;4.228;2023-08-17T07:16:23;5.15;;;1.17;;
5014;SDS011;2526;51.060;4.228;2023-08-17T07:18:48;5.10;;;1.20;;
5014;SDS011;2526;51.060;4.228;2023-08-17T07:21:14;4.07;;;1.83;;
5014;SDS011;2526;51.060;4.228;2023-08-17T07:23:43;5.97;;;1.55;;
5014;SDS011;2526;51.060;4.228;2023-08-17T07:26:08;4.25;;;1.50;;
5014;SDS011;2526;51.060;4.228;2023-08-17T07:28:34;7.65;;;3.00;;
5014;SDS011;2526;51.060;4.228;2023-08-17T07:30:59;3.42;;;1.38;;
5014;SDS011;2526;51.060;4.228;2023-08-17T07:33:25;2.63;;;1.58;;
5014;SDS011;2526;51.060;4.228;2023-08-17T07:35:50;3.85;;;1.70;;
5014;SDS011;2526;51.060;4.228;2023-08-17T07:38:16;4.63;;;2.03;;
5014;SDS011;2526;51.060;4.228;2023-08-17T07:40:41;2.53;;;1.80;;
5014;SDS011;2526;51.060;4.228;2023-08-17T07:43:08;2.45;;;1.85;;
5014;SDS011;2526;51.060;4.228;2023-08-17T07:45:34;3.65;;;1.58;;
5014;SDS011;2526;51.060;4.228;2023-08-17T07:47:59;1.85;;;1.52;;
5014;SDS011;2526;51.060;4.228;2023-08-17T07:50:25;4.05;;;1.63;;
5014;SDS011;2526;51.060;4.228;2023-08-17T07:52:50;7.03;;;2.05;;
5014;SDS011;2526;51.060;4.228;2023-08-17T07:55:15;4.30;;;1.75;;
5014;SDS011;2526;51.060;4.228;2023-08-17T07:57:41;2.60;;;2.00;;
5014;SDS011;2526;51.060;4.228;2023-08-17T08:00:06;3.30;;;2.30;;
5014;SDS011;2526;51.060;4.228;2023-08-17T08:02:32;2.88;;;1.73;;
5014;SDS011;2526;51.060;4.228;2023-08-17T08:04:58;2.55;;;1.63;;
5014;SDS011;2526;51.060;4.228;2023-08-17T08:07:23;2.47;;;1.77;;
5014;SDS011;2526;51.060;4.228;2023-08-17T08:09:49;8.43;;;2.40;;
5014;SDS011;2526;51.060;4.228;2023-08-17T08:12:14;4.47;;;2.35;;
5014;SDS011;2526;51.060;4.228;2023-08-17T08:14:40;2.60;;;1.80;;
5014;SDS011;2526;51.060;4.228;2023-08-17T08:17:05;2.47;;;2.17;;
5014;SDS011;2526;51.060;4.228;2023-08-17T08:19:30;1.40;;;1.30;;
5014;SDS011;2526;51.060;4.228;2023-08-17T08:21:58;10.90;;;1.80;;
5014;SDS011;2526;51.060;4.228;2023-08-17T08:24:23;9.75;;;2.25;;
5014;SDS011;2526;51.060;4.228;2023-08-17T08:26:48;2.88;;;1.95;;
5014;SDS011;2526;51.060;4.228;2023-08-17T08:29:16;3.17;;;2.10;;
5014;SDS011;2526;51.060;4.228;2023-08-17T08:31:41;2.28;;;1.50;;
5014;SDS011;2526;51.060;4.228;2023-08-17T08:34:07;5.18;;;1.98;;
5014;SDS011;2526;51.060;4.228;2023-08-17T08:36:32;3.83;;;1.20;;
5014;SDS011;2526;51.060;4.228;2023-08-17T08:38:57;3.80;;;2.08;;
5014;SDS011;2526;51.060;4.228;2023-08-17T08:41:23;5.82;;;2.22;;
5014;SDS011;2526;51.060;4.228;2023-08-17T08:43:50;3.03;;;1.75;;
5014;SDS011;2526;51.060;4.228;2023-08-17T08:46:16;9.27;;;2.22;;
5014;SDS011;2526;51.060;4.228;2023-08-17T08:48:43;1.40;;;1.20;;
5014;SDS011;2526;51.060;4.228;2023-08-17T08:51:10;3.65;;;1.75;;
5014;SDS011;2526;51.060;4.228;2023-08-17T08:53:38;4.03;;;1.92;;
5014;SDS011;2526;51.060;4.228;2023-08-17T08:56:04;8.73;;;1.80;;
5014;SDS011;2526;51.060;4.228;2023-08-17T08:58:32;5.53;;;1.92;;
5014;SDS011;2526;51.060;4.228;2023-08-17T09:00:58;7.05;;;2.25;;
5014;SDS011;2526;51.060;4.228;2023-08-17T09:03:26;2.38;;;1.48;;
5014;SDS011;2526;51.060;4.228;2023-08-17T09:05:51;3.88;;;2.42;;
5014;SDS011;2526;51.060;4.228;2023-08-17T09:08:27;3.35;;;1.80;;
5014;SDS011;2526;51.060;4.228;2023-08-17T09:10:53;3.67;;;1.98;;
5014;SDS011;2526;51.060;4.228;2023-08-17T09:13:19;3.38;;;1.75;;
5014;SDS011;2526;51.060;4.228;2023-08-17T09:15:44;7.90;;;2.72;;
5014;SDS011;2526;51.060;4.228;2023-08-17T09:18:10;3.72;;;2.50;;
5014;SDS011;2526;51.060;4.228;2023-08-17T09:20:45;3.95;;;2.17;;
5014;SDS011;2526;51.060;4.228;2023-08-17T09:23:11;3.00;;;1.98;;
5014;SDS011;2526;51.060;4.228;2023-08-17T09:26:10;3.05;;;1.98;;
5014;SDS011;2526;51.060;4.228;2023-08-17T09:28:38;4.00;;;2.22;;
5014;SDS011;2526;51.060;4.228;2023-08-17T09:31:03;3.38;;;2.38;;
5014;SDS011;2526;51.060;4.228;2023-08-17T09:33:29;5.95;;;2.53;;
5014;SDS011;2526;51.060;4.228;2023-08-17T09:35:56;4.28;;;2.78;;
5014;SDS011;2526;51.060;4.228;2023-08-17T09:38:21;4.13;;;2.83;;
5014;SDS011;2526;51.060;4.228;2023-08-17T09:40:47;2.78;;;2.05;;
5014;SDS011;2526;51.060;4.228;2023-08-17T09:43:14;3.47;;;2.17;;
5014;SDS011;2526;51.060;4.228;2023-08-17T09:45:39;4.43;;;1.75;;
5014;SDS011;2526;51.060;4.228;2023-08-17T09:48:08;6.45;;;2.45;;
5014;SDS011;2526;51.060;4.228;2023-08-17T09:50:34;3.67;;;2.15;;
5014;SDS011;2526;51.060;4.228;2023-08-17T09:52:59;3.50;;;2.20;;
5014;SDS011;2526;51.060;4.228;2023-08-17T09:55:25;7.20;;;3.05;;
5014;SDS011;2526;51.060;4.228;2023-08-17T09:57:51;7.97;;;2.38;;
5014;SDS011;2526;51.060;4.228;2023-08-17T10:00:20;5.10;;;2.15;;
5014;SDS011;2526;51.060;4.228;2023-08-17T10:02:49;6.07;;;2.58;;
5014;SDS011;2526;51.060;4.228;2023-08-17T10:05:17;3.95;;;3.05;;
5014;SDS011;2526;51.060;4.228;2023-08-17T10:07:43;2.50;;;2.15;;
5014;SDS011;2526;51.060;4.228;2023-08-17T10:10:11;5.13;;;2.33;;
5014;SDS011;2526;51.060;4.228;2023-08-17T10:12:37;4.38;;;2.17;;
5014;SDS011;2526;51.060;4.228;2023-08-17T10:15:08;2.83;;;1.92;;
5014;SDS011;2526;51.060;4.228;2023-08-17T10:17:38;2.60;;;2.38;;
5014;SDS011;2526;51.060;4.228;2023-08-17T10:20:05;12.48;;;2.28;;
5014;SDS011;2526;51.060;4.228;2023-08-17T10:22:36;2.50;;;1.90;;
5014;SDS011;2526;51.060;4.228;2023-08-17T10:25:08;7.80;;;3.30;;
5014;SDS011;2526;51.060;4.228;2023-08-17T10:27:37;5.72;;;2.78;;
5014;SDS011;2526;51.060;4.228;2023-08-17T10:30:02;6.97;;;2.70;;
5014;SDS011;2526;51.060;4.228;2023-08-17T10:32:28;4.15;;;2.55;;
5014;SDS011;2526;51.060;4.228;2023-08-17T10:34:53;5.18;;;2.90;;
5014;SDS011;2526;51.060;4.228;2023-08-17T10:37:19;5.10;;;3.05;;
5014;SDS011;2526;51.060;4.228;2023-08-17T10:39:46;4.60;;;2.88;;
5014;SDS011;2526;51.060;4.228;2023-08-17T10:42:12;6.00;;;3.72;;
5014;SDS011;2526;51.060;4.228;2023-08-17T10:44:44;2.58;;;2.38;;
5014;SDS011;2526;51.060;4.228;2023-08-17T10:47:20;4.47;;;3.22;;
5014;SDS011;2526;51.060;4.228;2023-08-17T10:49:51;10.07;;;3.85;;
5014;SDS011;2526;51.060;4.228;2023-08-17T10:52:30;5.30;;;3.40;;
5014;SDS011;2526;51.060;4.228;2023-08-17T10:54:56;10.65;;;2.60;;
5014;SDS011;2526;51.060;4.228;2023-08-17T11:00:07;10.95;;;3.65;;
5014;SDS011;2526;51.060;4.228;2023-08-17T11:02:39;5.43;;;3.17;;
5014;SDS011;2526;51.060;4.228;2023-08-17T11:05:04;9.65;;;3.60;;
5014;SDS011;2526;51.060;4.228;2023-08-17T11:07:51;7.07;;;3.50;;
5014;SDS011;2526;51.060;4.228;2023-08-17T11:12:44;5.13;;;3.78;;
5014;SDS011;2526;51.060;4.228;2023-08-17T11:15:10;4.82;;;3.63;;
5014;SDS011;2526;51.060;4.228;2023-08-17T11:17:36;5.80;;;4.18;;
5014;SDS011;2526;51.060;4.228;2023-08-17T11:20:01;5.63;;;4.07;;
5014;SDS011;2526;51.060;4.228;2023-08-17T11:22:27;5.00;;;4.05;;
5014;SDS011;2526;51.060;4.228;2023-08-17T11:24:53;7.13;;;4.38;;
5014;SDS011;2526;51.060;4.228;2023-08-17T11:27:18;5.85;;;4.40;;
5014;SDS011;2526;51.060;4.228;2023-08-17T11:29:45;9.40;;;4.18;;
5014;SDS011;2526;51.060;4.228;2023-08-17T11:32:10;4.95;;;3.20;;
5014;SDS011;2526;51.060;4.228;2023-08-17T11:34:36;8.20;;;4.50;;
5014;SDS011;2526;51.060;4.228;2023-08-17T11:37:02;8.00;;;4.47;;
5014;SDS011;2526;51.060;4.228;2023-08-17T11:39:27;4.82;;;3.05;;
5014;SDS011;2526;51.060;4.228;2023-08-17T11:41:57;7.07;;;4.85;;
5014;SDS011;2526;51.060;4.228;2023-08-17T11:44:24;8.07;;;4.80;;
5014;SDS011;2526;51.060;4.228;2023-08-17T11:46:49;10.45;;;6.03;;
5014;SDS011;2526;51.060;4.228;2023-08-17T11:49:15;9.18;;;4.05;;
5014;SDS011;2526;51.060;4.228;2023-08-17T11:51:42;6.10;;;4.38;;
5014;SDS011;2526;51.060;4.228;2023-08-17T11:54:07;6.60;;;4.40;;
5014;SDS011;2526;51.060;4.228;2023-08-17T11:56:33;9.73;;;6.13;;
5014;SDS011;2526;51.060;4.228;2023-08-17T11:58:59;10.20;;;4.85;;
5014;SDS011;2526;51.060;4.228;2023-08-17T12:01:33;9.13;;;4.97;;
5014;SDS011;2526;51.060;4.228;2023-08-17T12:04:00;8.27;;;6.53;;
5014;SDS011;2526;51.060;4.228;2023-08-17T12:06:25;8.43;;;5.18;;
5014;SDS011;2526;51.060;4.228;2023-08-17T12:08:51;5.80;;;5.20;;
5014;SDS011;2526;51.060;4.228;2023-08-17T12:11:16;8.70;;;6.40;;
5014;SDS011;2526;51.060;4.228;2023-08-17T12:13:51;7.68;;;6.03;;
5014;SDS011;2526;51.060;4.228;2023-08-17T12:16:17;8.63;;;6.10;;
5014;SDS011;2526;51.060;4.228;2023-08-17T12:18:49;13.43;;;7.90;;
5014;SDS011;2526;51.060;4.228;2023-08-17T12:21:14;12.07;;;7.70;;
5014;SDS011;2526;51.060;4.228;2023-08-17T12:23:40;9.48;;;6.97;;
5014;SDS011;2526;51.060;4.228;2023-08-17T12:26:06;11.93;;;7.05;;
5014;SDS011;2526;51.060;4.228;2023-08-17T12:28:32;10.70;;;5.93;;
5014;SDS011;2526;51.060;4.228;2023-08-17T12:30:58;11.82;;;7.20;;
5014;SDS011;2526;51.060;4.228;2023-08-17T12:33:24;9.35;;;6.63;;
5014;SDS011;2526;51.060;4.228;2023-08-17T12:35:49;9.93;;;6.03;;
5014;SDS011;2526;51.060;4.228;2023-08-17T12:38:15;10.20;;;5.70;;
5014;SDS011;2526;51.060;4.228;2023-08-17T12:40:40;7.80;;;6.20;;
5014;SDS011;2526;51.060;4.228;2023-08-17T12:43:06;12.73;;;7.68;;
5014;SDS011;2526;51.060;4.228;2023-08-17T12:45:32;9.05;;;6.60;;
5014;SDS011;2526;51.060;4.228;2023-08-17T12:47:59;11.25;;;6.10;;
5014;SDS011;2526;51.060;4.228;2023-08-17T12:50:25;12.23;;;6.78;;
5014;SDS011;2526;51.060;4.228;2023-08-17T12:52:50;11.52;;;7.35;;
5014;SDS011;2526;51.060;4.228;2023-08-17T12:55:15;8.50;;;6.07;;
5014;SDS011;2526;51.060;4.228;2023-08-17T12:57:41;15.40;;;7.18;;
5014;SDS011;2526;51.060;4.228;2023-08-17T13:00:07;8.65;;;6.50;;
5014;SDS011;2526;51.060;4.228;2023-08-17T13:02:32;7.57;;;5.90;;
5014;SDS011;2526;51.060;4.228;2023-08-17T13:04:57;11.32;;;8.05;;
5014;SDS011;2526;51.060;4.228;2023-08-17T13:07:23;11.73;;;7.47;;
5014;SDS011;2526;51.060;4.228;2023-08-17T13:09:48;11.38;;;7.13;;
5014;SDS011;2526;51.060;4.228;2023-08-17T13:12:14;10.40;;;7.28;;
5014;SDS011;2526;51.060;4.228;2023-08-17T13:14:39;8.98;;;5.63;;
5014;SDS011;2526;51.060;4.228;2023-08-17T13:17:05;9.48;;;6.88;;
5014;SDS011;2526;51.060;4.228;2023-08-17T13:19:30;9.68;;;6.15;;
5014;SDS011;2526;51.060;4.228;2023-08-17T13:22:00;9.45;;;7.32;;
5014;SDS011;2526;51.060;4.228;2023-08-17T13:24:28;12.02;;;8.15;;
5014;SDS011;2526;51.060;4.228;2023-08-17T13:26:53;8.75;;;6.88;;
5014;SDS011;2526;51.060;4.228;2023-08-17T13:29:19;10.13;;;5.95;;
5014;SDS011;2526;51.060;4.228;2023-08-17T13:31:46;10.73;;;7.47;;
5014;SDS011;2526;51.060;4.228;2023-08-17T13:34:11;6.03;;;4.72;;
5014;SDS011;2526;51.060;4.228;2023-08-17T13:36:37;11.57;;;5.38;;
5014;SDS011;2526;51.060;4.228;2023-08-17T13:39:02;7.80;;;5.57;;
5014;SDS011;2526;51.060;4.228;2023-08-17T13:41:28;11.35;;;6.70;;
5014;SDS011;2526;51.060;4.228;2023-08-17T13:43:54;8.25;;;5.03;;
5014;SDS011;2526;51.060;4.228;2023-08-17T13:46:22;7.63;;;4.28;;
5014;SDS011;2526;51.060;4.228;2023-08-17T13:48:48;7.85;;;4.95;;
5014;SDS011;2526;51.060;4.228;2023-08-17T13:51:13;8.10;;;5.65;;
5014;SDS011;2526;51.060;4.228;2023-08-17T13:53:39;13.23;;;6.10;;
5014;SDS011;2526;51.060;4.228;2023-08-17T13:56:04;10.40;;;5.10;;
5014;SDS011;2526;51.060;4.228;2023-08-17T13:58:29;8.02;;;6.20;;
5014;SDS011;2526;51.060;4.228;2023-08-17T14:00:55;10.25;;;7.15;;
5014;SDS011;2526;51.060;4.228;2023-08-17T14:03:20;11.80;;;6.35;;
5014;SDS011;2526;51.060;4.228;2023-08-17T14:05:46;7.32;;;5.95;;
5014;SDS011;2526;51.060;4.228;2023-08-17T14:08:11;9.95;;;5.50;;
5014;SDS011;2526;51.060;4.228;2023-08-17T14:10:37;7.57;;;6.18;;
5014;SDS011;2526;51.060;4.228;2023-08-17T14:13:02;9.05;;;5.72;;
5014;SDS011;2526;51.060;4.228;2023-08-17T14:15:28;6.15;;;5.55;;
5014;SDS011;2526;51.060;4.228;2023-08-17T14:17:53;11.32;;;6.43;;
5014;SDS011;2526;51.060;4.228;2023-08-17T14:20:19;7.25;;;4.80;;
5014;SDS011;2526;51.060;4.228;2023-08-17T14:22:44;10.35;;;6.18;;
5014;SDS011;2526;51.060;4.228;2023-08-17T14:25:10;8.27;;;4.97;;
5014;SDS011;2526;51.060;4.228;2023-08-17T14:27:35;9.70;;;6.03;;
5014;SDS011;2526;51.060;4.228;2023-08-17T14:30:01;9.73;;;6.20;;
5014;SDS011;2526;51.060;4.228;2023-08-17T14:32:29;7.40;;;4.78;;
5014;SDS011;2526;51.060;4.228;2023-08-17T14:34:54;6.45;;;4.05;;
5014;SDS011;2526;51.060;4.228;2023-08-17T14:37:20;8.57;;;4.72;;
5014;SDS011;2526;51.060;4.228;2023-08-17T14:39:46;9.65;;;4.53;;
5014;SDS011;2526;51.060;4.228;2023-08-17T14:42:12;8.82;;;4.45;;
5014;SDS011;2526;51.060;4.228;2023-08-17T14:44:37;7.35;;;4.40;;
5014;SDS011;2526;51.060;4.228;2023-08-17T14:47:03;7.85;;;4.53;;
5014;SDS011;2526;51.060;4.228;2023-08-17T14:49:28;10.52;;;5.80;;
5014;SDS011;2526;51.060;4.228;2023-08-17T14:51:54;15.07;;;6.35;;
5014;SDS011;2526;51.060;4.228;2023-08-17T14:54:19;10.35;;;5.75;;
5014;SDS011;2526;51.060;4.228;2023-08-17T14:56:45;7.28;;;5.10;;
5014;SDS011;2526;51.060;4.228;2023-08-17T14:59:10;12.68;;;7.30;;
5014;SDS011;2526;51.060;4.228;2023-08-17T15:01:36;10.32;;;6.75;;
5014;SDS011;2526;51.060;4.228;2023-08-17T15:04:01;10.88;;;5.85;;
5014;SDS011;2526;51.060;4.228;2023-08-17T15:06:27;10.40;;;5.95;;
5014;SDS011;2526;51.060;4.228;2023-08-17T15:08:52;12.75;;;5.47;;
5014;SDS011;2526;51.060;4.228;2023-08-17T15:11:18;6.57;;;5.45;;
5014;SDS011;2526;51.060;4.228;2023-08-17T15:13:43;11.80;;;7.22;;